Time;durP1;ratioP1;P1;durP2;ratioP2;P2;SDS_P1;SDS_P2;PMS_P1;PMS_P2;Temp;Humidity;BMP_temperature;BMP_pressure;BME280_temperature;BME280_humidity;BME280_pressure;Samples;Min_cycle;Max_cycle;Signal;HPM_P1;HPM_P2
2022/09/11 00:04:46;;;;;;;0.90;0.50;;;;;;;21.14;56.92;96866.06;10550326;28;20486;-27
2022/09/11 00:09:47;;;;;;;1.17;0.40;;;;;;;21.18;57.32;96878.78;10550106;28;20116;-27
2022/09/11 00:14:47;;;;;;;1.10;0.40;;;;;;;21.15;57.75;96873.69;10551247;28;20047;-27
2022/09/11 00:19:48;;;;;;;1.50;0.30;;;;;;;21.08;58.05;96871.22;10548172;28;20036;-27
2022/09/11 00:24:48;;;;;;;0.83;0.30;;;;;;;21.05;58.41;96869.53;10551374;28;20100;-28
2022/09/11 00:29:49;;;;;;;2.53;0.40;;;;;;;21.04;58.39;96867.00;10547424;28;20285;-27
2022/09/11 00:34:49;;;;;;;1.10;0.40;;;;;;;21.01;58.51;96865.31;10543530;28;20412;-27
2022/09/11 00:39:53;;;;;;;1.73;0.40;;;;;;;21.11;57.11;96872.03;10542330;28;20290;-27
2022/09/11 00:45:00;;;;;;;1.15;0.50;;;;;;;21.16;56.99;96869.44;10543275;28;20036;-27
2022/09/11 00:50:28;;;;;;;2.05;0.35;;;;;;;21.16;57.14;96867.75;10554627;28;20092;-27
2022/09/11 00:55:32;;;;;;;1.42;0.32;;;;;;;21.09;58.25;96868.66;10544944;28;20043;-27
2022/09/11 01:00:33;;;;;;;1.40;0.50;;;;;;;21.08;58.13;96854.25;10538278;28;20122;-27
2022/09/11 01:05:38;;;;;;;2.25;0.30;;;;;;;21.05;58.35;96854.25;10532570;28;20035;-27
2022/09/11 01:11:12;;;;;;;0.65;0.50;;;;;;;21.01;58.68;96852.59;10539056;28;20059;-27
2022/09/11 01:16:27;;;;;;;1.35;0.52;;;;;;;21.07;57.23;96844.88;10556508;28;20035;-27
2022/09/11 01:21:30;;;;;;;1.17;0.30;;;;;;;21.11;57.03;96851.66;10532659;28;20028;-27
2022/09/11 01:27:00;;;;;;;0.90;0.32;;;;;;;21.13;57.09;96855.03;10543699;28;20092;-27
2022/09/11 01:32:27;;;;;;;1.60;0.52;;;;;;;21.10;57.96;96849.97;10535545;28;20031;-26
2022/09/11 01:38:07;;;;;;;1.17;0.22;;;;;;;21.06;58.42;96847.47;10537283;28;20035;-28
2022/09/11 01:43:14;;;;;;;1.05;0.45;;;;;;;21.00;58.49;96843.28;10467903;28;20126;-27
2022/09/11 01:48:19;;;;;;;0.47;0.30;;;;;;;21.00;58.49;96853.47;10541685;28;20084;-27
2022/09/11 01:53:24;;;;;;;0.43;0.40;;;;;;;20.99;58.63;96856.84;10542154;28;20019;-27
2022/09/11 01:58:29;;;;;;;1.95;0.40;;;;;;;21.08;56.84;96850.84;10529771;28;20028;-27
2022/09/11 02:03:56;;;;;;;1.38;0.60;;;;;;;21.11;56.70;96854.22;10546914;28;20110;-27
2022/09/11 02:09:01;;;;;;;1.77;1.02;;;;;;;21.14;57.44;96860.97;10534031;28;20480;-27
2022/09/11 02:14:12;;;;;;;0.80;0.38;;;;;;;21.07;57.98;96854.25;10539416;28;20032;-27
2022/09/11 02:19:15;;;;;;;0.73;0.30;;;;;;;21.02;58.29;96861.06;10541371;28;20027;-29
2022/09/11 02:24:17;;;;;;;0.55;0.30;;;;;;;21.00;58.34;96868.72;10533515;28;20499;-27
2022/09/11 02:29:20;;;;;;;1.25;0.50;;;;;;;20.99;58.56;96867.00;10540156;28;20488;-27
2022/09/11 02:34:26;;;;;;;0.45;0.20;;;;;;;20.97;58.55;96858.56;10546794;28;20032;-27
2022/09/11 02:39:45;;;;;;;1.73;0.40;;;;;;;21.05;56.93;96861.06;10542414;28;20040;-27
2022/09/11 02:45:08;;;;;;;1.98;0.50;;;;;;;21.07;57.00;96855.06;10533957;28;20040;-26
2022/09/11 02:50:21;;;;;;;0.80;0.80;;;;;;;21.11;57.28;96861.00;10533724;28;20052;-26
2022/09/11 02:55:43;;;;;;;0.30;0.30;;;;;;;21.06;58.08;96858.47;10534431;28;20131;-27
2022/09/11 03:00:45;;;;;;;1.80;0.47;;;;;;;21.02;58.39;96859.38;10537819;28;20575;-28
2022/09/11 03:05:46;;;;;;;1.77;0.73;;;;;;;21.00;58.57;96862.78;10534781;28;20108;-27
2022/09/11 03:10:48;;;;;;;0.20;0.20;;;;;;;20.97;58.66;96842.44;10540385;28;20024;-27
2022/09/11 03:15:49;;;;;;;1.02;0.20;;;;;;;20.96;58.44;96843.31;10545634;28;20499;-26
2022/09/11 03:20:50;;;;;;;2.10;0.40;;;;;;;21.04;57.22;96844.94;10526271;28;20033;-26
2022/09/11 03:25:51;;;;;;;1.13;0.22;;;;;;;21.06;56.81;96842.38;10528619;28;20500;-27
2022/09/11 03:30:51;;;;;;;0.50;0.30;;;;;;;21.08;57.06;96830.47;10532444;28;20028;-27
2022/09/11 03:35:53;;;;;;;1.23;0.35;;;;;;;21.05;58.27;96831.34;10529926;28;20400;-27
2022/09/11 03:40:54;;;;;;;1.75;0.40;;;;;;;21.01;58.36;96834.78;10541294;28;20123;-28
2022/09/11 03:45:54;;;;;;;2.08;0.35;;;;;;;20.98;58.54;96841.59;10532273;28;20103;-27
2022/09/11 03:50:55;;;;;;;0.77;0.38;;;;;;;20.97;58.56;96843.28;10534771;28;20027;-27
2022/09/11 03:55:55;;;;;;;0.63;0.30;;;;;;;20.96;58.58;96851.78;10531755;28;20120;-27
2022/09/11 04:00:56;;;;;;;0.93;0.40;;;;;;;21.04;56.83;96851.75;10538302;28;20032;-27
2022/09/11 04:05:59;;;;;;;1.55;0.30;;;;;;;21.05;56.69;96849.16;10547507;28;20166;-28
2022/09/11 04:11:03;;;;;;;1.05;0.20;;;;;;;21.07;56.85;96844.06;10547803;28;20015;-27
2022/09/11 04:16:17;;;;;;;2.03;0.40;;;;;;;21.03;58.10;96848.34;10548902;28;20028;-26
2022/09/11 04:21:20;;;;;;;0.93;0.32;;;;;;;20.98;58.37;96846.69;10538131;28;20570;-28
2022/09/11 04:26:28;;;;;;;0.20;0.20;;;;;;;20.99;58.37;96856.84;10557724;28;20395;-27
2022/09/11 04:31:35;;;;;;;1.15;0.50;;;;;;;20.96;58.51;96856.88;10548164;28;20020;-27
2022/09/11 04:36:35;;;;;;;0.20;0.20;;;;;;;20.95;58.65;96862.81;10548932;28;20062;-27
2022/09/11 04:41:36;;;;;;;0.70;0.28;;;;;;;21.01;56.90;96860.25;10563795;28;20036;-26
2022/09/11 04:46:37;;;;;;;0.88;0.40;;;;;;;21.05;56.43;96861.88;10536991;28;20034;-27
2022/09/11 04:51:40;;;;;;;1.65;0.28;;;;;;;21.07;56.66;96864.44;10544255;28;20032;-28
2022/09/11 04:56:43;;;;;;;0.50;0.30;;;;;;;21.04;57.59;96870.38;10551834;28;20089;-26
2022/09/11 05:01:45;;;;;;;0.52;0.30;;;;;;;21.01;58.15;96885.69;10550447;28;20035;-27
2022/09/11 05:06:47;;;;;;;0.85;0.32;;;;;;;20.97;58.29;96889.09;10546576;28;20499;-26
2022/09/11 05:11:49;;;;;;;0.80;0.80;;;;;;;20.95;58.07;96897.59;10546682;28;20028;-28
2022/09/11 05:16:51;;;;;;;1.67;0.40;;;;;;;20.96;58.48;96912.03;10546511;28;20020;-27
2022/09/11 05:21:54;;;;;;;0.30;0.20;;;;;;;20.97;56.92;96924.75;10547185;28;20053;-27
2022/09/11 05:26:57;;;;;;;0.43;0.30;;;;;;;21.01;56.65;96926.41;10543475;28;20289;-27
2022/09/11 05:31:58;;;;;;;2.00;0.47;;;;;;;21.01;56.28;96936.59;10530407;28;20035;-31
2022/09/11 05:37:01;;;;;;;2.70;0.47;;;;;;;21.02;56.84;96942.53;10538383;28;20515;-28
2022/09/11 05:42:03;;;;;;;0.40;0.20;;;;;;;20.72;59.22;96948.59;10537174;28;20403;-28
2022/09/11 05:47:07;;;;;;;1.10;0.40;;;;;;;20.60;59.15;96956.31;10536822;28;20039;-28
2022/09/11 05:52:08;;;;;;;1.38;0.40;;;;;;;20.56;58.78;96967.34;10537144;28;20491;-29
2022/09/11 05:57:09;;;;;;;2.88;0.43;;;;;;;20.52;58.66;96975.84;10542481;28;20024;-28
2022/09/11 06:02:11;;;;;;;1.85;0.35;;;;;;;20.49;58.62;96975.88;10548433;28;20031;-28
2022/09/11 06:07:17;;;;;;;4.27;0.50;;;;;;;20.44;58.00;96972.50;10523338;28;20032;-29
2022/09/11 06:12:21;;;;;;;2.88;0.63;;;;;;;20.52;58.37;96975.00;10529231;28;20027;-28
2022/09/11 06:17:23;;;;;;;1.13;0.40;;;;;;;20.53;58.59;96971.59;10531375;28;20052;-28
2022/09/11 06:22:24;;;;;;;1.27;0.50;;;;;;;20.47;58.62;96961.47;10535406;28;20043;-28
2022/09/11 06:27:27;;;;;;;0.80;0.55;;;;;;;20.46;58.27;96965.69;10539004;28;20446;-28
2022/09/11 06:32:27;;;;;;;2.38;0.45;;;;;;;20.43;58.13;96960.63;10542966;28;20041;-28
2022/09/11 06:37:28;;;;;;;1.58;0.50;;;;;;;20.43;58.36;96959.75;10539860;28;20430;-29
2022/09/11 06:42:28;;;;;;;2.00;0.40;;;;;;;20.39;58.39;96958.94;10550619;28;20060;-28
2022/09/11 06:47:32;;;;;;;2.90;0.75;;;;;;;20.39;58.37;96958.94;10529588;28;20546;-28
2022/09/11 06:52:34;;;;;;;1.75;0.50;;;;;;;20.42;58.39;96963.16;10527589;28;20129;-28
2022/09/11 06:58:07;;;;;;;4.55;0.60;;;;;;;20.39;59.06;96956.38;10527091;28;20040;-28
2022/09/11 07:03:10;;;;;;;1.40;0.55;;;;;;;20.42;58.63;96958.94;10542133;28;20558;-28
2022/09/11 07:08:10;;;;;;;1.33;0.55;;;;;;;20.42;58.90;96958.94;10531624;28;20036;-28
2022/09/11 07:13:11;;;;;;;1.00;0.50;;;;;;;20.37;58.55;96948.78;10533029;28;20035;-27
2022/09/11 07:18:12;;;;;;;0.80;0.80;;;;;;;20.39;59.01;96953.84;10541769;28;20798;-29
2022/09/11 07:23:13;;;;;;;2.90;0.60;;;;;;;20.31;59.18;96954.75;10534230;28;20043;-28
2022/09/11 07:28:14;;;;;;;3.03;0.63;;;;;;;20.35;58.97;96956.41;10528086;28;20036;-29
2022/09/11 07:33:15;;;;;;;2.10;0.93;;;;;;;20.42;58.78;96958.06;10536811;28;20052;-28
2022/09/11 07:38:15;;;;;;;4.60;0.50;;;;;;;20.50;58.36;96952.13;10532296;28;20544;-28
2022/09/11 07:43:17;;;;;;;1.08;0.50;;;;;;;20.44;58.23;96961.44;10538924;28;20050;-28
2022/09/11 07:48:18;;;;;;;4.05;0.73;;;;;;;20.62;58.62;96962.22;10534138;28;20032;-28
2022/09/11 07:53:18;;;;;;;1.17;0.50;;;;;;;20.76;57.28;96965.56;10526687;28;20388;-28
2022/09/11 07:58:19;;;;;;;3.17;0.65;;;;;;;20.65;57.20;96962.22;10540103;28;20028;-28
2022/09/11 08:03:20;;;;;;;2.63;0.93;;;;;;;20.69;57.41;96974.06;10536330;28;20036;-27
2022/09/11 08:08:20;;;;;;;1.93;0.63;;;;;;;20.49;58.07;96983.50;10539650;28;20050;-28
2022/09/11 08:13:21;;;;;;;9.68;1.20;;;;;;;20.34;58.98;96979.31;10534356;28;20682;-28
2022/09/11 08:18:22;;;;;;;3.92;0.75;;;;;;;20.51;58.13;96979.25;10548222;28;20093;-28
2022/09/11 08:23:23;;;;;;;3.50;0.88;;;;;;;20.50;58.16;96981.78;10528019;28;20028;-27
2022/09/11 08:28:23;;;;;;;3.43;1.07;;;;;;;20.46;58.67;96986.03;10532360;28;20028;-28
2022/09/11 08:33:24;;;;;;;1.85;0.70;;;;;;;20.45;58.19;96989.44;10525251;28;20291;-29
2022/09/11 08:38:26;;;;;;;1.92;0.70;;;;;;;20.38;58.33;96985.22;10534158;28;20039;-28
2022/09/11 08:43:37;;;;;;;2.67;1.02;;;;;;;20.38;58.56;96991.16;10526060;28;20031;-28
2022/09/11 08:48:53;;;;;;;2.35;0.75;;;;;;;20.36;58.33;96993.69;10531245;28;20038;-29
2022/09/11 08:53:55;;;;;;;2.53;0.43;;;;;;;20.32;58.43;96986.06;10543420;28;20032;-29
2022/09/11 08:59:32;;;;;;;1.42;0.65;;;;;;;20.40;58.24;96993.69;10537221;28;20069;-30
2022/09/11 09:04:52;;;;;;;3.60;0.65;;;;;;;20.42;57.93;96986.91;10484179;28;20044;-29
2022/09/11 09:10:15;;;;;;;1.80;0.77;;;;;;;20.38;58.31;96986.06;10548216;28;20024;-29
2022/09/11 09:15:29;;;;;;;1.85;0.85;;;;;;;20.42;58.37;96978.44;10544764;28;20499;-28
2022/09/11 09:20:36;;;;;;;0.95;0.68;;;;;;;20.35;58.18;96989.47;10535780;28;20056;-28
2022/09/11 09:25:41;;;;;;;1.25;0.90;;;;;;;20.38;58.02;96996.25;10544183;28;20445;-28
2022/09/11 09:30:47;;;;;;;3.22;0.70;;;;;;;20.38;57.94;96993.69;10530715;28;20073;-28
2022/09/11 09:35:48;;;;;;;;;;;;;;;20.43;58.11;96990.28;10534834;28;20442;-28
2022/09/11 09:41:08;;;;;;;0.82;0.52;;;;;;;20.63;57.73;96989.34;10543808;28;19916;-28
2022/09/11 09:46:33;;;;;;;1.83;0.50;;;;;;;20.56;57.55;96992.78;10533801;28;20702;-28
2022/09/11 09:51:35;;;;;;;2.55;0.68;;;;;;;20.53;57.38;96981.75;10549540;28;20038;-29
2022/09/11 09:56:38;;;;;;;1.92;0.50;;;;;;;20.59;57.49;96992.78;10552314;28;20046;-28
2022/09/11 10:01:47;;;;;;;2.63;0.57;;;;;;;20.55;57.80;96980.91;10542049;28;20039;-29
2022/09/11 10:06:51;;;;;;;1.70;0.40;;;;;;;20.48;57.86;96984.31;10546802;28;20064;-28
2022/09/11 10:11:54;;;;;;;1.50;0.52;;;;;;;20.48;57.94;96979.25;10539905;28;20060;-28
2022/09/11 10:16:55;;;;;;;1.52;0.60;;;;;;;20.43;57.95;96973.34;10545321;28;20472;-26
2022/09/11 10:22:24;;;;;;;2.58;0.50;;;;;;;20.54;57.75;96969.06;10541408;28;20115;-28
2022/09/11 10:27:26;;;;;;;1.83;0.60;;;;;;;20.48;57.78;96969.06;10549813;28;20403;-28
2022/09/11 10:32:27;;;;;;;1.08;0.80;;;;;;;20.40;57.92;96973.34;10545956;28;20073;-28
2022/09/11 10:37:30;;;;;;;0.70;0.50;;;;;;;20.42;57.78;96971.66;10534948;28;20039;-30
2022/09/11 10:42:33;;;;;;;0.98;0.57;;;;;;;20.39;57.70;96969.09;10552947;28;20040;-28
2022/09/11 10:47:34;;;;;;;2.40;0.93;;;;;;;20.44;57.32;96967.41;10543597;28;20446;-29
2022/09/11 10:53:05;;;;;;;0.80;0.60;;;;;;;20.52;57.17;96973.31;10551570;28;20101;-28
2022/09/11 10:58:17;;;;;;;2.67;0.70;;;;;;;20.42;57.86;96964.03;10545077;28;20135;-29
2022/09/11 11:03:26;;;;;;;1.20;0.50;;;;;;;20.50;57.47;96964.84;10542780;28;20508;-29
2022/09/11 11:08:59;;;;;;;4.00;0.50;;;;;;;20.53;57.62;96971.59;10540595;28;20036;-28
2022/09/11 11:14:21;;;;;;;0.45;0.45;;;;;;;20.42;57.49;96964.88;10517027;28;20534;-28
2022/09/11 11:19:36;;;;;;;0.63;0.60;;;;;;;20.45;57.69;96963.19;10541220;28;20035;-28
2022/09/11 11:25:10;;;;;;;1.30;0.63;;;;;;;20.42;57.70;96966.56;10540662;28;20028;-28
2022/09/11 11:30:16;;;;;;;1.23;0.70;;;;;;;20.45;57.67;96953.81;10535491;28;20487;-28
2022/09/11 11:35:22;;;;;;;1.15;0.70;;;;;;;20.51;57.47;96948.72;10545674;28;20031;-27
2022/09/11 11:40:45;;;;;;;;;;;;;;;20.46;57.56;96942.81;10543327;28;20062;-28
2022/09/11 11:45:56;;;;;;;0.88;0.65;;;;;;;20.47;58.08;96941.94;10531411;28;19920;-28
2022/09/11 11:51:05;;;;;;;0.98;0.65;;;;;;;20.53;57.39;96936.84;10529154;28;20024;-30
2022/09/11 11:56:15;;;;;;;1.17;0.70;;;;;;;20.50;57.38;96916.50;10543301;28;20041;-28
2022/09/11 12:01:23;;;;;;;0.85;0.68;;;;;;;20.53;57.49;96920.72;10541345;28;20558;-29
2022/09/11 12:06:25;;;;;;;0.98;0.60;;;;;;;20.59;56.93;96921.56;10531546;28;20034;-29
2022/09/11 12:11:29;;;;;;;1.85;0.52;;;;;;;20.63;56.59;96919.84;10538755;28;20480;-28
2022/09/11 12:16:33;;;;;;;1.23;0.57;;;;;;;20.55;57.24;96924.94;10536560;28;20089;-31
2022/09/11 12:21:37;;;;;;;2.65;0.98;;;;;;;20.61;57.09;96916.44;10533731;28;20044;-28
2022/09/11 12:26:37;;;;;;;0.50;0.45;;;;;;;20.48;57.54;96907.19;10549251;28;20063;-28
2022/09/11 12:31:58;;;;;;;0.80;0.50;;;;;;;20.65;56.89;96915.59;10536273;28;20403;-29
2022/09/11 12:37:06;;;;;;;0.95;0.65;;;;;;;20.57;57.25;96915.59;10524716;28;20590;-28
2022/09/11 12:42:24;;;;;;;0.73;0.57;;;;;;;20.56;57.59;96916.47;10551310;28;20032;-28
2022/09/11 12:47:35;;;;;;;0.88;0.60;;;;;;;20.55;57.60;96904.59;10543932;28;20127;-29
2022/09/11 12:52:45;;;;;;;1.25;0.50;;;;;;;20.58;57.07;96907.16;10546012;28;20531;-29
2022/09/11 12:57:45;;;;;;;0.85;0.68;;;;;;;20.52;57.30;96899.53;10539873;28;20066;-29
2022/09/11 13:02:54;;;;;;;3.05;0.93;;;;;;;20.45;57.31;96895.34;10544258;28;20567;-29
2022/09/11 13:07:59;;;;;;;3.97;0.68;;;;;;;20.61;57.20;96894.41;10537095;28;20040;-27
2022/09/11 13:13:02;;;;;;;0.70;0.50;;;;;;;20.75;57.05;96895.19;10553644;28;20031;-29
2022/09/11 13:18:28;;;;;;;0.82;0.70;;;;;;;20.62;56.90;96883.38;10548458;28;20031;-28
2022/09/11 13:23:29;;;;;;;1.13;0.60;;;;;;;20.59;57.30;96880.84;10550042;28;20477;-29
2022/09/11 13:28:34;;;;;;;0.73;0.60;;;;;;;20.54;57.58;96877.47;10549548;28;20116;-28
2022/09/11 13:33:34;;;;;;;1.65;0.90;;;;;;;20.52;57.84;96880.88;10546538;28;20082;-28
2022/09/11 13:38:36;;;;;;;0.80;0.70;;;;;;;20.56;57.46;96873.22;10541700;28;20097;-28
2022/09/11 13:43:43;;;;;;;1.65;0.90;;;;;;;20.63;57.07;96862.16;10546908;28;20027;-28
2022/09/11 13:48:44;;;;;;;;;;;;;;;20.60;57.19;96851.16;10545329;28;20045;-29
2022/09/11 13:53:54;;;;;;;0.32;0.30;;;;;;;20.78;57.14;96851.88;10539768;28;19995;-28
2022/09/11 13:58:55;;;;;;;0.68;0.50;;;;;;;20.86;57.09;96845.06;10538824;28;20086;-29
2022/09/11 14:03:56;;;;;;;1.03;0.50;;;;;;;20.63;57.43;96831.63;10551099;28;20101;-29
2022/09/11 14:08:56;;;;;;;0.98;0.60;;;;;;;20.68;57.03;96835.00;10544146;28;20297;-28
2022/09/11 14:14:08;;;;;;;0.90;0.50;;;;;;;20.62;57.49;96835.03;10544785;28;20027;-28
2022/09/11 14:19:35;;;;;;;0.55;0.50;;;;;;;20.58;57.55;96833.38;10551950;28;20039;-28
2022/09/11 14:24:37;;;;;;;1.63;0.50;;;;;;;20.60;57.54;96825.72;10538664;28;20128;-29
2022/09/11 14:29:37;;;;;;;0.55;0.55;;;;;;;20.71;57.08;96834.97;10545315;28;20032;-28
2022/09/11 14:34:37;;;;;;;0.90;0.70;;;;;;;20.65;57.54;96824.81;10548200;28;20038;-28
2022/09/11 14:39:46;;;;;;;1.40;0.83;;;;;;;20.61;57.36;96818.06;10546010;28;20561;-29
2022/09/11 14:44:47;;;;;;;0.60;0.50;;;;;;;20.61;57.58;96818.06;10536721;28;20056;-28
2022/09/11 14:49:50;;;;;;;0.50;0.50;;;;;;;20.61;57.32;96813.00;10543753;28;20119;-28
2022/09/11 14:54:50;;;;;;;0.43;0.40;;;;;;;20.64;57.17;96822.31;10549735;28;20032;-28
2022/09/11 14:59:51;;;;;;;1.07;0.70;;;;;;;20.58;57.04;96817.25;10541970;28;20032;-28
2022/09/11 15:04:54;;;;;;;3.00;0.82;;;;;;;20.52;57.15;96810.50;10537308;28;20301;-28
2022/09/11 15:09:54;;;;;;;4.68;0.68;;;;;;;20.57;57.34;96798.59;10538599;28;20558;-28
2022/09/11 15:14:56;;;;;;;2.60;0.80;;;;;;;20.60;57.31;96796.03;10540900;28;20043;-26
2022/09/11 15:19:59;;;;;;;1.27;0.52;;;;;;;20.57;57.04;96790.97;10542286;28;20790;-27
2022/09/11 15:25:00;;;;;;;1.05;0.60;;;;;;;20.58;57.03;96782.50;10546791;28;20038;-27
2022/09/11 15:30:01;;;;;;;0.38;0.32;;;;;;;20.61;57.23;96787.56;10525068;28;20046;-27
2022/09/11 15:35:02;;;;;;;0.50;0.50;;;;;;;20.60;57.03;96780.78;10530125;28;20040;-27
2022/09/11 15:40:03;;;;;;;2.67;0.85;;;;;;;20.54;57.06;96775.72;10532187;28;20035;-27
2022/09/11 15:45:04;;;;;;;1.65;0.63;;;;;;;20.52;56.99;96767.28;10533830;28;20491;-26
2022/09/11 15:50:05;;;;;;;0.75;0.52;;;;;;;20.59;56.96;96781.63;10539106;28;20065;-28
2022/09/11 15:55:06;;;;;;;0.70;0.40;;;;;;;20.59;56.84;96771.47;10536009;28;20035;-28
2022/09/11 16:00:07;;;;;;;2.28;0.98;;;;;;;20.59;56.92;96778.25;10531427;28;20043;-29
2022/09/11 16:05:13;;;;;;;3.37;1.73;;;;;;;20.62;57.09;96773.16;10544067;28;20032;-29
2022/09/11 16:10:13;;;;;;;1.60;1.10;;;;;;;20.72;56.77;96773.03;10548942;28;20048;-27
2022/09/11 16:15:14;;;;;;;1.80;0.75;;;;;;;20.68;56.76;96768.84;10529843;28;20032;-28
2022/09/11 16:20:14;;;;;;;0.60;0.60;;;;;;;20.61;57.06;96763.78;10547988;28;20036;-29
2022/09/11 16:25:16;;;;;;;0.70;0.68;;;;;;;20.58;56.98;96764.69;10549981;28;20043;-28
2022/09/11 16:30:16;;;;;;;1.00;0.70;;;;;;;20.56;57.31;96766.38;10530806;28;20118;-28
2022/09/11 16:35:17;;;;;;;1.37;0.50;;;;;;;20.55;57.06;96762.16;10528735;28;20811;-28
2022/09/11 16:40:18;;;;;;;0.75;0.68;;;;;;;20.55;56.85;96759.59;10543134;28;20050;-27
2022/09/11 16:45:18;;;;;;;1.27;0.87;;;;;;;20.51;57.04;96755.41;10523944;28;20434;-27
2022/09/11 16:50:19;;;;;;;1.10;0.70;;;;;;;20.55;57.23;96756.25;10522400;28;20514;-27
2022/09/11 16:55:20;;;;;;;3.88;0.95;;;;;;;20.65;56.22;96751.03;10539282;28;20381;-26
2022/09/11 17:00:20;;;;;;;1.13;0.60;;;;;;;20.64;56.40;96754.44;10530121;28;20097;-28
2022/09/11 17:05:20;;;;;;;1.58;0.70;;;;;;;20.68;56.05;96753.59;10516481;28;20028;-27
2022/09/11 17:10:21;;;;;;;0.93;0.77;;;;;;;20.62;56.93;96753.63;10536327;28;20034;-27
2022/09/11 17:15:24;;;;;;;2.15;0.73;;;;;;;20.61;56.83;96751.94;10539478;28;20036;-26
2022/09/11 17:20:24;;;;;;;1.00;0.70;;;;;;;20.58;56.77;96751.97;10538542;28;20033;-27
2022/09/11 17:25:24;;;;;;;1.03;0.60;;;;;;;20.54;57.39;96750.28;10557367;28;20086;-26
2022/09/11 17:30:25;;;;;;;1.47;0.70;;;;;;;20.55;57.57;96749.44;10542436;28;20036;-26
2022/09/11 17:35:25;;;;;;;3.73;1.50;;;;;;;20.61;58.53;96748.53;10539893;28;20028;-26
2022/09/11 17:40:26;;;;;;;1.70;0.80;;;;;;;20.69;57.46;96745.09;10547101;28;20521;-28
2022/09/11 17:45:27;;;;;;;3.97;0.80;;;;;;;20.58;57.69;96751.13;10539685;28;20562;-27
2022/09/11 17:50:28;;;;;;;0.93;0.68;;;;;;;20.49;57.67;96741.88;10541463;28;20081;-27
2022/09/11 17:55:30;;;;;;;1.47;1.13;;;;;;;20.52;58.01;96759.63;10552404;28;20092;-29
2022/09/11 18:00:30;;;;;;;1.20;0.50;;;;;;;20.52;57.84;96762.19;10551783;28;20309;-27
2022/09/11 18:05:32;;;;;;;1.80;0.80;;;;;;;20.54;57.65;96762.19;10542353;28;20035;-27
2022/09/11 18:10:33;;;;;;;1.13;0.70;;;;;;;20.53;57.72;96760.47;10536341;28;20016;-26
2022/09/11 18:15:34;;;;;;;1.53;0.70;;;;;;;20.51;58.04;96770.69;10534155;28;20028;-27
2022/09/11 18:20:35;;;;;;;1.17;0.77;;;;;;;20.54;58.00;96773.19;10527361;28;20404;-26
2022/09/11 18:25:37;;;;;;;1.10;0.70;;;;;;;20.59;57.62;96768.91;10545615;28;20043;-26
2022/09/11 18:30:40;;;;;;;1.00;0.82;;;;;;;20.61;57.98;96777.38;10543810;28;20036;-27
2022/09/11 18:35:40;;;;;;;3.78;0.90;;;;;;;20.66;57.39;96780.75;10529816;28;20118;-27
2022/09/11 18:40:40;;;;;;;1.30;0.93;;;;;;;20.65;57.17;96785.84;10542217;28;20457;-27
2022/09/11 18:45:41;;;;;;;1.33;0.80;;;;;;;20.51;57.91;96785.94;10546770;28;20535;-27
2022/09/11 18:50:41;;;;;;;1.30;0.50;;;;;;;20.58;57.70;96782.50;10538278;28;20290;-27
2022/09/11 18:55:42;;;;;;;1.00;0.60;;;;;;;20.56;57.41;96784.19;10533733;28;20067;-26
2022/09/11 19:00:42;;;;;;;3.33;0.80;;;;;;;20.61;57.73;96785.00;10544533;28;20039;-27
2022/09/11 19:05:42;;;;;;;0.60;0.60;;;;;;;20.64;57.31;96787.53;10536933;28;20040;-27
2022/09/11 19:10:43;;;;;;;0.97;0.83;;;;;;;20.61;57.54;96779.91;10546896;28;20032;-27
2022/09/11 19:15:43;;;;;;;2.10;0.70;;;;;;;20.55;57.50;96792.69;10530774;28;20044;-26
2022/09/11 19:20:43;;;;;;;8.03;1.13;;;;;;;20.53;57.55;96783.34;10522863;27;20028;-27
2022/09/11 19:25:44;;;;;;;1.10;0.80;;;;;;;20.49;57.51;96787.66;10541372;28;20446;-27
2022/09/11 19:30:53;;;;;;;1.30;0.90;;;;;;;20.51;57.67;96796.09;10540880;28;20414;-26
2022/09/11 19:35:56;;;;;;;0.98;0.75;;;;;;;20.46;57.36;96794.47;10529281;28;20563;-26
2022/09/11 19:40:57;;;;;;;3.20;1.17;;;;;;;20.46;57.71;96797.00;10546138;28;20036;-27
2022/09/11 19:46:02;;;;;;;2.20;0.95;;;;;;;20.54;57.46;96801.16;10543132;28;20048;-26
2022/09/11 19:51:05;;;;;;;1.73;1.17;;;;;;;20.53;57.37;96803.72;10536762;28;20475;-26
2022/09/11 19:56:07;;;;;;;1.58;1.05;;;;;;;20.48;57.36;96801.19;10536340;28;20031;-28
2022/09/11 20:01:10;;;;;;;2.10;0.90;;;;;;;20.43;57.47;96804.63;10547696;28;20035;-27
2022/09/11 20:06:13;;;;;;;4.35;2.35;;;;;;;20.42;57.49;96803.81;10544200;28;20035;-27
2022/09/11 20:11:16;;;;;;;2.63;1.15;;;;;;;20.39;57.49;96805.50;10541619;28;20513;-26
2022/09/11 20:16:19;;;;;;;1.23;0.93;;;;;;;20.37;57.49;96802.16;10549661;28;20044;-26
2022/09/11 20:21:20;;;;;;;2.63;1.20;;;;;;;20.29;57.83;96808.13;10532658;28;20403;-26
2022/09/11 20:26:24;;;;;;;1.60;0.90;;;;;;;20.36;57.74;96805.50;10521604;28;20028;-27
2022/09/11 20:31:31;;;;;;;1.35;1.23;;;;;;;20.43;57.58;96814.81;10527659;28;20085;-26
2022/09/11 20:36:31;;;;;;;1.17;1.08;;;;;;;20.42;57.46;96810.56;10534168;28;20028;-27
2022/09/11 20:41:32;;;;;;;2.65;1.17;;;;;;;20.39;57.43;96815.69;10550603;28;20051;-26
2022/09/11 20:46:32;;;;;;;1.10;1.00;;;;;;;20.36;57.43;96809.78;10535181;28;20039;-27
2022/09/11 20:51:33;;;;;;;3.70;1.00;;;;;;;20.34;57.37;96803.88;10553195;28;20027;-27
2022/09/11 20:56:34;;;;;;;1.60;1.15;;;;;;;20.30;57.62;96795.41;10557277;28;20044;-26
2022/09/11 21:01:34;;;;;;;2.33;0.77;;;;;;;20.29;57.53;96797.94;10547835;28;20039;-27
2022/09/11 21:06:35;;;;;;;1.40;0.98;;;;;;;20.24;57.44;96789.50;10552954;28;20028;-27
2022/09/11 21:11:37;;;;;;;1.63;1.10;;;;;;;20.25;57.51;96791.19;10553027;28;20046;-26
2022/09/11 21:16:37;;;;;;;1.73;1.27;;;;;;;20.29;57.33;96787.78;10544191;28;20298;-27
2022/09/11 21:21:38;;;;;;;1.33;1.20;;;;;;;20.27;57.39;96790.31;10545461;28;20043;-27
2022/09/11 21:26:41;;;;;;;1.50;1.30;;;;;;;20.25;57.21;96781.03;10553901;28;20036;-27
2022/09/11 21:31:41;;;;;;;1.20;1.10;;;;;;;20.23;56.87;96783.56;10553951;28;20024;-27
2022/09/11 21:36:42;;;;;;;1.33;1.10;;;;;;;20.15;57.16;96770.06;10537940;28;20487;-27
2022/09/11 21:41:42;;;;;;;2.92;1.30;;;;;;;20.18;56.99;96771.75;10546122;28;20028;-26
2022/09/11 21:46:42;;;;;;;1.13;0.90;;;;;;;20.16;56.94;96775.97;10551750;28;20032;-27
2022/09/11 21:51:43;;;;;;;2.10;1.10;;;;;;;20.18;56.99;96774.28;10543652;28;20445;-27
2022/09/11 21:56:43;;;;;;;1.05;0.95;;;;;;;20.15;56.80;96771.75;10550624;28;20042;-27
2022/09/11 22:01:43;;;;;;;3.40;0.90;;;;;;;20.18;56.93;96770.03;10547274;28;20151;-27
2022/09/11 22:06:44;;;;;;;2.13;1.30;;;;;;;20.22;56.68;96768.31;10543156;28;20036;-27
2022/09/11 22:11:45;;;;;;;1.03;0.90;;;;;;;20.17;56.65;96762.44;10551974;27;20092;-27
2022/09/11 22:16:46;;;;;;;2.05;1.15;;;;;;;20.15;56.76;96771.75;10541447;27;20044;-27
2022/09/11 22:21:46;;;;;;;1.23;1.13;;;;;;;20.13;56.73;96768.38;10543181;28;20036;-27
2022/09/11 22:26:46;;;;;;;1.67;1.40;;;;;;;20.12;56.67;96764.16;10553751;28;20282;-26
2022/09/11 22:31:47;;;;;;;1.10;1.00;;;;;;;20.10;56.80;96761.59;10549653;28;20035;-27
2022/09/11 22:36:48;;;;;;;3.37;1.37;;;;;;;20.10;56.65;96765.88;10534954;28;20040;-26
2022/09/11 22:41:48;;;;;;;1.85;1.10;;;;;;;20.09;56.67;96769.25;10552124;28;20112;-27
2022/09/11 22:46:48;;;;;;;1.20;1.07;;;;;;;20.11;56.76;96767.56;10543218;28;20510;-27
2022/09/11 22:51:49;;;;;;;3.10;1.20;;;;;;;20.14;56.53;96773.47;10538227;28;20035;-27
2022/09/11 22:56:49;;;;;;;1.23;1.00;;;;;;;20.13;56.55;96755.66;10549996;28;20059;-27
2022/09/11 23:01:50;;;;;;;1.88;1.00;;;;;;;20.08;56.64;96758.25;10545122;28;20515;-26
2022/09/11 23:12:10;;;;;;;2.88;1.10;;;;;;;20.06;56.34;96749.78;10549272;28;20552;-27
2022/09/11 23:17:10;;;;;;;1.45;1.13;;;;;;;20.01;56.42;96743.84;10546294;28;20057;-26
2022/09/11 23:22:11;;;;;;;3.13;1.00;;;;;;;19.99;56.13;96732.84;10546448;28;20479;-27
2022/09/11 23:27:11;;;;;;;1.60;0.90;;;;;;;20.02;56.34;96737.06;10553888;28;20434;-27
2022/09/11 23:32:11;;;;;;;1.40;1.00;;;;;;;20.01;56.38;96732.84;10549909;28;20028;-27
2022/09/11 23:37:12;;;;;;;2.73;1.07;;;;;;;20.06;56.27;96738.75;10537305;28;20023;-27
2022/09/11 23:42:12;;;;;;;1.20;1.10;;;;;;;20.07;56.56;96731.13;10548351;28;20028;-27
2022/09/11 23:47:12;;;;;;;1.73;1.03;;;;;;;20.01;56.29;96720.97;10545925;28;20071;-27